createdAt,value
2019-05-21T01:29:16.170Z,36.70
2019-05-21T01:31:45.002Z,33.73
2019-05-21T01:34:13.818Z,33.20
2019-05-21T01:36:43.622Z,33.90
2019-05-21T01:39:12.315Z,32.33
2019-05-21T01:41:41.153Z,34.00
2019-05-21T01:44:09.949Z,33.70
2019-05-21T01:46:38.776Z,33.90
2019-05-21T01:49:07.571Z,34.47
2019-05-21T01:51:59.568Z,34.37
2019-05-21T01:54:28.282Z,34.30
2019-05-21T01:57:01.120Z,35.63
2019-05-21T01:59:29.877Z,37.17
2019-05-21T02:02:00.703Z,34.93
2019-05-21T02:04:29.474Z,37.30
2019-05-21T02:07:00.344Z,36.57
2019-05-21T02:09:29.283Z,37.17
2019-05-21T02:12:17.330Z,36.50
2019-05-21T02:14:46.165Z,36.20
2019-05-21T02:17:14.968Z,37.60
2019-05-21T02:19:43.965Z,37.70
2019-05-21T02:22:12.760Z,37.13
2019-05-21T02:24:41.529Z,36.50
2019-05-21T02:27:12.260Z,37.83
2019-05-21T02:29:41.112Z,38.50
2019-05-21T02:32:22.289Z,38.07
2019-05-21T02:34:51.078Z,31.87
2019-05-21T02:37:38.231Z,38.00
2019-05-21T02:40:07.344Z,36.77
2019-05-21T02:42:38.248Z,36.40
2019-05-21T02:45:08.130Z,37.53
2019-05-21T02:47:36.941Z,36.57
2019-05-21T02:50:07.847Z,35.47
2019-05-21T02:52:38.811Z,38.00
2019-05-21T03:00:49.306Z,38.77
2019-05-21T03:03:19.790Z,36.63
2019-05-21T03:05:48.709Z,35.70
2019-05-21T03:08:17.496Z,37.57
2019-05-21T03:11:01.250Z,37.70
2019-05-21T03:13:30.155Z,36.60
2019-05-21T03:16:16.142Z,38.00
2019-05-21T03:18:44.945Z,39.17
2019-05-21T03:21:15.858Z,40.63
2019-05-21T03:23:44.632Z,40.10
2019-05-21T03:26:17.761Z,39.73
2019-05-21T03:31:38.984Z,38.87
2019-05-21T03:34:07.765Z,39.13
2019-05-21T03:36:46.791Z,39.63
2019-05-21T03:39:19.250Z,42.17
2019-05-21T03:41:48.153Z,41.20
2019-05-21T03:44:16.930Z,44.50
2019-05-21T03:46:46.856Z,44.33
2019-05-21T03:49:15.623Z,43.93
2019-05-21T03:51:46.538Z,44.50
2019-05-21T03:54:15.347Z,46.23
2019-05-21T03:56:45.282Z,46.33
2019-05-21T03:59:14.102Z,46.73
2019-05-21T04:01:44.610Z,46.40
2019-05-21T04:04:13.421Z,46.60
2019-05-21T04:06:52.073Z,48.10
2019-05-21T04:09:12.715Z,49.23
2019-05-21T04:11:41.652Z,48.37
2019-05-21T04:14:10.502Z,48.17
2019-05-21T04:22:30.319Z,46.13
2019-05-21T04:24:59.103Z,48.17
2019-05-21T04:27:27.874Z,48.73
2019-05-21T04:29:57.789Z,51.53
2019-05-21T04:32:26.495Z,51.30
2019-05-21T04:35:12.576Z,48.20
2019-05-21T04:37:41.404Z,46.67
2019-05-21T04:40:11.914Z,47.87
2019-05-21T04:42:40.747Z,48.23
2019-05-21T04:45:23.783Z,49.90
2019-05-21T04:47:52.596Z,48.07
2019-05-21T04:50:21.393Z,47.23
2019-05-21T04:52:50.229Z,47.07
2019-05-21T04:55:31.061Z,45.43
2019-05-21T04:57:59.889Z,46.77
2019-05-21T05:00:28.761Z,44.97
2019-05-21T05:02:57.576Z,45.83
2019-05-21T05:05:28.449Z,45.93
2019-05-21T05:07:57.251Z,46.93
2019-05-21T05:10:29.661Z,47.30
2019-05-21T05:12:58.929Z,46.77
2019-05-21T05:15:28.140Z,45.17
2019-05-21T05:17:56.869Z,46.57
2019-05-21T05:20:26.793Z,45.23
2019-05-21T05:23:01.735Z,46.03
2019-05-21T05:25:30.571Z,45.00
2019-05-21T05:27:59.268Z,46.30
2019-05-21T05:30:28.316Z,46.70
2019-05-21T05:32:57.101Z,45.43
2019-05-21T05:35:25.897Z,46.27
2019-05-21T05:37:57.759Z,47.27
2019-05-21T05:40:26.588Z,47.23
2019-05-21T05:42:55.412Z,45.73
2019-05-21T05:45:36.227Z,45.23
2019-05-21T05:48:05.113Z,44.33
2019-05-21T05:50:35.637Z,43.33
2019-05-21T05:53:04.495Z,42.63
2019-05-21T05:55:36.425Z,41.43
2019-05-21T05:58:05.380Z,43.13
2019-05-21T06:00:34.244Z,43.07
2019-05-21T06:03:03.090Z,42.73
2019-05-21T06:05:31.852Z,41.17
2019-05-21T06:08:00.743Z,40.57
2019-05-21T06:10:39.844Z,42.90
2019-05-21T06:13:06.158Z,41.23
2019-05-21T06:15:34.976Z,40.20
2019-05-21T06:18:24.610Z,40.33
2019-05-21T06:20:53.445Z,41.57
2019-05-21T06:23:22.234Z,41.97
2019-05-21T06:25:51.064Z,41.90
2019-05-21T06:28:19.783Z,42.03
2019-05-21T06:30:52.651Z,41.43
2019-05-21T06:33:21.454Z,40.77
2019-05-21T06:35:50.237Z,41.90
2019-05-21T06:38:35.088Z,39.73
2019-05-21T06:41:03.902Z,39.67
2019-05-21T06:43:32.706Z,37.60
2019-05-21T06:49:21.349Z,38.20
2019-05-21T06:51:50.118Z,36.70
2019-05-21T06:54:18.914Z,36.83
2019-05-21T06:56:49.768Z,37.77
2019-05-21T06:59:18.599Z,35.50
2019-05-21T07:01:47.410Z,36.47
2019-05-21T07:04:28.372Z,36.43
2019-05-21T07:06:57.204Z,37.67
2019-05-21T07:09:25.993Z,34.30
2019-05-21T07:12:09.940Z,34.20
2019-05-21T07:14:38.754Z,33.87
2019-05-21T07:17:07.578Z,34.67
2019-05-21T07:20:11.365Z,32.20
2019-05-21T07:22:40.336Z,31.57
2019-05-21T07:25:09.278Z,31.60
2019-05-21T07:28:02.537Z,29.47
2019-05-21T07:30:31.336Z,27.97
2019-05-21T07:33:00.155Z,27.07
2019-05-21T07:35:52.072Z,24.13
2019-05-21T07:38:20.999Z,19.70
2019-05-21T07:40:49.794Z,19.37
2019-05-21T07:43:18.616Z,21.47
2019-05-21T07:45:47.455Z,20.87
2019-05-21T07:48:16.218Z,19.07
2019-05-21T07:51:06.019Z,19.57
2019-05-21T07:53:34.779Z,18.03
2019-05-21T07:56:03.637Z,19.33
2019-05-21T07:58:56.763Z,19.43
2019-05-21T08:01:25.684Z,20.10
2019-05-21T08:03:57.753Z,19.60
2019-05-21T08:06:26.566Z,19.90
2019-05-21T08:09:11.638Z,20.27
2019-05-21T08:12:27.821Z,19.30
2019-05-21T08:14:53.022Z,21.53
2019-05-21T08:17:21.790Z,24.47
2019-05-21T08:19:50.577Z,24.17
2019-05-21T08:22:50.945Z,24.93
2019-05-21T08:25:19.724Z,23.97
2019-05-21T08:27:48.564Z,26.57
2019-05-21T08:30:19.520Z,26.43
2019-05-21T08:32:48.356Z,26.10
2019-05-21T08:38:17.361Z,30.23
2019-05-21T08:40:46.085Z,32.83
2019-05-21T08:43:14.867Z,33.03
2019-05-21T08:45:58.769Z,33.63
2019-05-21T08:48:27.468Z,35.27
2019-05-21T08:50:56.376Z,32.57
2019-05-21T08:53:31.470Z,34.07
2019-05-21T08:56:00.278Z,34.50
2019-05-21T08:58:29.081Z,34.67
2019-05-21T09:01:01.144Z,34.33
2019-05-21T09:03:29.921Z,34.60
2019-05-21T09:05:58.739Z,31.10
2019-05-21T09:08:55.132Z,29.87
2019-05-21T09:11:23.951Z,26.37
2019-05-21T09:13:52.762Z,27.40
2019-05-21T09:16:21.616Z,25.40
2019-05-21T09:18:50.396Z,22.17
2019-05-21T09:21:19.296Z,22.03
2019-05-21T09:23:54.324Z,20.27
2019-05-21T09:26:23.035Z,19.77
2019-05-21T09:29:00.090Z,18.90
2019-05-21T09:31:28.866Z,18.83
2019-05-21T09:33:57.639Z,18.07
2019-05-21T09:36:28.158Z,18.70
2019-05-21T09:38:57.264Z,18.70
2019-05-21T09:41:26.047Z,18.57
2019-05-21T09:44:31.593Z,18.30
2019-05-21T09:47:00.433Z,18.50
2019-05-21T09:49:29.220Z,17.67
2019-05-21T09:57:51.819Z,16.33
2019-05-21T10:03:27.110Z,14.07
2019-05-21T10:05:55.939Z,15.23
2019-05-21T10:08:27.972Z,15.73
2019-05-21T10:10:56.806Z,15.73
2019-05-21T10:16:43.580Z,15.30
2019-05-21T10:19:12.371Z,14.17
2019-05-21T10:21:41.155Z,13.90
2019-05-21T10:24:13.049Z,15.13
2019-05-21T10:26:41.837Z,14.27
2019-05-21T10:29:29.925Z,13.53
2019-05-21T10:31:58.715Z,14.47
2019-05-21T10:34:27.647Z,14.67
2019-05-21T10:37:04.833Z,14.87
2019-05-21T10:39:33.767Z,15.90
2019-05-21T10:42:02.544Z,16.00
2019-05-21T10:44:36.619Z,15.90
2019-05-21T10:47:05.752Z,16.17
2019-05-21T10:49:34.564Z,16.30
2019-05-21T10:52:15.511Z,17.00
2019-05-21T10:54:44.358Z,17.13
2019-05-21T10:57:13.155Z,19.00
2019-05-21T10:59:41.948Z,19.40
2019-05-21T11:02:12.387Z,21.20
2019-05-21T11:04:42.816Z,20.67
2019-05-21T11:07:35.953Z,21.03
2019-05-21T11:15:54.454Z,21.70
2019-05-21T11:18:23.231Z,22.37
2019-05-21T11:20:52.176Z,22.00
2019-05-21T11:23:30.123Z,21.97
2019-05-21T11:25:58.948Z,21.57
2019-05-21T11:28:27.718Z,21.70
2019-05-21T11:31:01.560Z,18.57
2019-05-21T11:33:30.341Z,20.70
2019-05-21T11:35:59.294Z,20.37
2019-05-21T11:38:39.503Z,19.70
2019-05-21T11:40:58.650Z,18.90
2019-05-21T11:43:27.460Z,18.20
2019-05-21T11:46:11.448Z,17.70
2019-05-21T11:48:40.261Z,18.23
2019-05-21T11:51:12.523Z,18.07
2019-05-21T11:53:46.867Z,18.27
2019-05-21T11:56:15.717Z,18.40
2019-05-21T11:58:44.548Z,18.63
2019-05-21T12:01:13.568Z,18.50
2019-05-21T12:03:42.384Z,17.53
2019-05-21T12:06:11.100Z,18.33
2019-05-21T12:08:56.299Z,17.43
2019-05-21T12:11:16.922Z,16.63
2019-05-21T12:13:45.994Z,16.97
2019-05-21T12:16:14.788Z,17.73
2019-05-21T12:18:49.557Z,16.67
2019-05-21T12:21:24.446Z,16.57
2019-05-21T12:23:53.258Z,16.27
2019-05-21T12:26:22.031Z,16.10
2019-05-21T12:28:51.120Z,17.33
2019-05-21T12:31:19.878Z,16.10
2019-05-21T12:34:19.013Z,17.37
2019-05-21T12:36:47.836Z,16.27
2019-05-21T12:39:16.625Z,17.27
2019-05-21T12:42:04.741Z,15.70
2019-05-21T12:44:33.498Z,16.13
2019-05-21T12:47:02.308Z,18.00
2019-05-21T12:49:31.183Z,17.33
2019-05-21T12:52:00.004Z,17.63
2019-05-21T12:54:29.604Z,15.60
2019-05-21T12:57:21.430Z,14.80
2019-05-21T12:59:50.205Z,13.97
2019-05-21T13:02:19.048Z,12.73
2019-05-21T13:04:48.964Z,13.20
2019-05-21T13:07:17.744Z,12.43
2019-05-21T13:09:46.557Z,12.43
2019-05-21T13:12:17.424Z,12.73
2019-05-21T13:14:46.223Z,11.97
2019-05-21T13:17:14.940Z,11.90
2019-05-21T13:19:46.790Z,12.40
2019-05-21T13:22:15.597Z,13.37
2019-05-21T13:24:50.825Z,12.47
2019-05-21T13:27:19.624Z,12.53
2019-05-21T13:29:48.478Z,13.23
2019-05-21T13:32:19.398Z,12.43
2019-05-21T13:34:48.110Z,13.50
2019-05-21T13:37:19.905Z,13.70
2019-05-21T13:39:50.341Z,13.77
2019-05-21T13:42:38.200Z,13.50
2019-05-21T13:45:08.216Z,14.33
2019-05-21T13:47:38.219Z,13.67
2019-05-21T13:50:06.806Z,12.93
2019-05-21T13:55:36.533Z,14.30
2019-05-21T13:58:05.650Z,15.50
2019-05-21T14:06:35.077Z,15.53
2019-05-21T14:09:05.628Z,16.13
2019-05-21T14:11:34.598Z,15.37
2019-05-21T14:14:04.367Z,15.50
2019-05-21T14:16:34.963Z,14.33
2019-05-21T14:19:03.957Z,16.47
2019-05-21T14:21:34.788Z,14.57
2019-05-21T14:24:03.619Z,16.53
2019-05-21T14:26:43.144Z,17.13
2019-05-21T14:29:11.943Z,18.07
2019-05-21T14:31:44.829Z,20.00
2019-05-21T14:34:13.645Z,18.30
2019-05-21T14:36:44.571Z,18.70
2019-05-21T14:39:17.968Z,18.93
2019-05-21T14:41:55.018Z,17.03
2019-05-21T14:44:23.857Z,17.40
2019-05-21T14:46:52.669Z,17.90
2019-05-21T14:49:21.735Z,17.43
2019-05-21T14:52:09.832Z,16.80
2019-05-21T14:54:38.738Z,17.40
2019-05-21T14:57:14.581Z,18.33
2019-05-21T14:59:43.398Z,18.07
2019-05-21T15:02:51.298Z,19.07
2019-05-21T15:05:28.245Z,18.67
2019-05-21T15:07:57.027Z,18.93
2019-05-21T15:10:28.893Z,20.13
2019-05-21T15:12:57.907Z,19.40
2019-05-21T15:15:27.802Z,19.00
2019-05-21T15:17:56.581Z,18.33
2019-05-21T15:25:56.920Z,17.77
2019-05-21T15:28:25.873Z,17.83
2019-05-21T15:30:55.031Z,17.43
2019-05-21T15:33:23.842Z,16.87
2019-05-21T15:35:53.698Z,15.30
2019-05-21T15:38:22.607Z,15.70
2019-05-21T15:41:08.841Z,14.77
2019-05-21T15:43:23.187Z,13.90
2019-05-21T15:45:52.163Z,13.53
2019-05-21T15:48:25.727Z,12.70
2019-05-21T15:50:51.484Z,13.63
2019-05-21T15:53:32.435Z,13.80
2019-05-21T15:56:01.567Z,13.00
2019-05-21T15:58:33.397Z,12.90
2019-05-21T16:01:02.585Z,12.60
2019-05-21T16:03:39.747Z,12.97
2019-05-21T16:06:08.554Z,14.60
2019-05-21T16:08:37.504Z,15.03
2019-05-21T16:11:06.989Z,14.40
2019-05-21T16:13:39.882Z,15.67
2019-05-21T16:16:08.674Z,15.37
2019-05-21T16:18:49.739Z,14.87
2019-05-21T16:21:18.561Z,17.67
2019-05-21T16:23:52.833Z,17.10
2019-05-21T16:26:23.368Z,17.13
2019-05-21T16:28:53.200Z,17.53
2019-05-21T16:31:22.742Z,18.23
2019-05-21T16:33:51.565Z,19.80
2019-05-21T16:36:20.285Z,19.63
2019-05-21T16:38:49.257Z,21.53
2019-05-21T16:41:17.981Z,19.80
2019-05-21T16:43:46.793Z,21.00
2019-05-21T16:46:15.734Z,21.30
2019-05-21T16:48:44.500Z,20.50
2019-05-21T16:51:21.559Z,21.87
2019-05-21T16:53:50.191Z,20.77
2019-05-21T16:56:18.997Z,20.70
2019-05-21T16:58:47.870Z,21.37
2019-05-21T17:01:16.677Z,26.47
2019-05-21T17:03:59.129Z,26.30
2019-05-21T17:06:15.812Z,25.33
2019-05-21T17:08:44.554Z,17.63
2019-05-21T17:11:13.263Z,14.73
2019-05-21T17:13:41.960Z,12.50
2019-05-21T17:16:10.791Z,12.80
2019-05-21T17:18:39.606Z,13.13
2019-05-21T17:21:08.345Z,12.13
2019-05-21T17:23:37.135Z,12.20
2019-05-21T17:26:05.923Z,12.27
2019-05-21T17:28:34.704Z,11.70
2019-05-21T17:31:03.574Z,12.20
2019-05-21T17:33:32.473Z,11.83
2019-05-21T17:36:01.262Z,10.67
2019-05-21T17:38:30.050Z,12.07
2019-05-21T17:40:58.947Z,11.43
2019-05-21T17:43:27.758Z,12.27
2019-05-21T17:45:56.584Z,20.37
2019-05-21T17:48:25.366Z,17.00
2019-05-21T17:50:54.290Z,16.23
2019-05-21T17:53:23.564Z,12.57
2019-05-21T17:55:52.355Z,13.17
2019-05-21T17:58:21.138Z,10.97
2019-05-21T18:00:51.578Z,11.90
2019-05-21T18:03:20.673Z,12.53
2019-05-21T18:05:50.422Z,13.27
2019-05-21T18:08:20.241Z,11.90
2019-05-21T18:10:49.308Z,12.27
2019-05-21T18:13:19.521Z,11.30
2019-05-21T18:15:49.347Z,12.67
2019-05-21T18:18:18.484Z,11.90
2019-05-21T18:20:47.910Z,12.70
2019-05-21T18:23:16.590Z,11.90
2019-05-21T18:25:45.428Z,11.83
2019-05-21T18:28:14.151Z,11.77
2019-05-21T18:30:42.986Z,11.60
2019-05-21T18:33:11.733Z,11.63
2019-05-21T18:35:40.532Z,11.93
2019-05-21T18:38:09.332Z,12.10
2019-05-21T18:40:38.379Z,12.10
2019-05-21T18:43:07.226Z,11.53
2019-05-21T18:45:36.002Z,12.40
2019-05-21T18:48:04.782Z,12.70
2019-05-21T18:50:36.573Z,14.13
2019-05-21T18:53:04.146Z,13.17
2019-05-21T18:55:32.899Z,13.27
2019-05-21T18:58:01.638Z,13.17
2019-05-21T19:00:30.409Z,13.30
2019-05-21T19:02:59.065Z,14.17
2019-05-21T19:05:27.966Z,13.07
2019-05-21T19:08:07.088Z,13.97
2019-05-21T19:10:36.027Z,14.10
2019-05-21T19:13:05.099Z,15.17
2019-05-21T19:15:53.190Z,14.50
2019-05-21T19:21:06.323Z,14.07
2019-05-21T19:23:35.088Z,13.57
2019-05-21T19:26:05.082Z,13.37
2019-05-21T19:28:34.536Z,13.80
2019-05-21T19:31:09.841Z,13.20
2019-05-21T19:33:39.004Z,13.03
2019-05-21T19:36:08.139Z,12.83
2019-05-21T19:38:37.355Z,14.00
2019-05-21T19:41:06.582Z,14.03
2019-05-21T19:43:35.427Z,14.73
2019-05-21T19:46:05.497Z,13.90
2019-05-21T19:48:34.893Z,14.30
2019-05-21T19:51:05.569Z,15.00
2019-05-21T19:53:34.518Z,14.03
2019-05-21T19:56:05.387Z,14.80
2019-05-21T19:58:34.301Z,15.47
2019-05-21T20:01:11.077Z,15.27
2019-05-21T20:03:40.050Z,14.50
2019-05-21T20:06:13.137Z,15.17
2019-05-21T20:08:42.189Z,15.07
2019-05-21T20:11:13.227Z,15.57
2019-05-21T20:13:42.811Z,15.33
2019-05-21T20:16:13.275Z,15.67
2019-05-21T20:18:42.246Z,15.23
2019-05-21T20:21:11.170Z,15.00
2019-05-21T20:23:47.598Z,16.30
2019-05-21T20:26:19.305Z,16.37
2019-05-21T20:28:49.455Z,17.03
2019-05-21T20:31:19.098Z,17.17
2019-05-21T20:33:50.301Z,16.97
2019-05-21T20:36:19.422Z,17.50
2019-05-21T20:39:00.061Z,16.70
2019-05-21T20:41:29.372Z,17.97
2019-05-21T20:44:08.827Z,16.83
2019-05-21T20:46:38.599Z,18.77
2019-05-21T20:49:14.866Z,17.83
2019-05-21T20:51:44.307Z,19.30
2019-05-21T20:54:17.863Z,18.87
2019-05-21T20:56:46.663Z,18.10
2019-05-21T20:59:15.517Z,18.07
2019-05-21T21:01:45.081Z,17.90
2019-05-21T21:04:14.513Z,18.70
2019-05-21T21:06:43.664Z,18.63
2019-05-21T21:09:17.674Z,19.40
2019-05-21T21:11:46.916Z,17.90
2019-05-21T21:14:19.465Z,18.33
2019-05-21T21:16:48.563Z,17.70
2019-05-21T21:19:21.079Z,18.40
2019-05-21T21:21:53.137Z,18.47
2019-05-21T21:24:22.327Z,18.97
2019-05-21T21:26:51.435Z,18.47
2019-05-21T21:29:20.222Z,18.40
2019-05-21T21:31:57.497Z,18.23
2019-05-21T21:34:26.385Z,18.30
2019-05-21T21:36:57.249Z,19.57
2019-05-21T21:39:26.121Z,18.60
2019-05-21T21:41:59.158Z,18.60
2019-05-21T21:44:34.219Z,19.03
2019-05-21T21:47:01.459Z,19.10
2019-05-21T21:49:31.469Z,19.80
2019-05-21T21:52:01.702Z,19.07
2019-05-21T21:54:47.699Z,20.43
2019-05-21T21:57:16.958Z,19.70
2019-05-21T21:59:46.385Z,19.10
2019-05-21T22:02:38.392Z,19.93
2019-05-21T22:05:09.033Z,21.87
2019-05-21T22:07:39.949Z,20.40
2019-05-21T22:10:09.693Z,21.57
2019-05-21T22:12:38.899Z,21.20
2019-05-21T22:15:08.054Z,21.23
2019-05-21T22:17:53.578Z,22.50
2019-05-21T22:20:22.850Z,22.07
2019-05-21T22:22:51.719Z,22.77
2019-05-21T22:25:20.586Z,22.07
2019-05-21T22:27:54.612Z,21.63
2019-05-21T22:30:25.082Z,20.77
2019-05-21T22:32:54.021Z,21.30
2019-05-21T22:35:22.868Z,20.43
2019-05-21T22:38:01.059Z,21.87
2019-05-21T22:40:30.112Z,21.07
2019-05-21T22:42:58.982Z,21.47
2019-05-21T22:45:27.798Z,21.67
2019-05-21T22:48:07.176Z,21.27
2019-05-21T22:50:36.266Z,21.17
2019-05-21T22:53:06.484Z,21.17
2019-05-21T22:55:35.296Z,23.50
2019-05-21T22:58:06.323Z,21.20
2019-05-21T23:00:35.521Z,22.70
2019-05-21T23:03:09.836Z,23.10
2019-05-21T23:05:38.665Z,24.67
2019-05-21T23:08:22.587Z,23.67
2019-05-21T23:10:51.415Z,21.63
2019-05-21T23:13:32.183Z,23.20
2019-05-21T23:16:02.033Z,24.00
2019-05-21T23:18:30.881Z,25.07
2019-05-21T23:21:00.455Z,23.63
2019-05-21T23:23:36.067Z,24.73
2019-05-21T23:26:06.218Z,24.60
2019-05-21T23:28:49.564Z,23.07
2019-05-21T23:31:19.078Z,24.13
2019-05-21T23:33:49.024Z,24.13
2019-05-21T23:36:34.142Z,23.90
2019-05-21T23:39:08.815Z,24.80
2019-05-21T23:41:37.628Z,24.63
2019-05-21T23:44:11.742Z,25.13
2019-05-21T23:46:40.494Z,24.27
2019-05-21T23:49:22.694Z,24.90
2019-05-21T23:51:51.497Z,24.43
2019-05-21T23:54:25.467Z,24.77
2019-05-21T23:56:55.640Z,25.13
2019-05-21T23:59:30.814Z,26.70
